createdAt,value
2017-10-16T00:01:56.388Z,7.17
2017-10-16T00:04:23.899Z,7.15
2017-10-16T00:06:51.446Z,7.31
2017-10-16T00:09:18.962Z,7.34
2017-10-16T00:11:46.455Z,7.29
2017-10-16T00:14:13.964Z,7.35
2017-10-16T00:16:41.465Z,7.10
2017-10-16T00:19:08.991Z,7.02
2017-10-16T00:21:36.498Z,7.17
2017-10-16T00:24:04.008Z,7.11
2017-10-16T00:26:31.580Z,7.07
2017-10-16T00:28:59.100Z,7.20
2017-10-16T00:31:26.616Z,7.27
2017-10-16T00:33:54.123Z,7.36
2017-10-16T00:36:21.624Z,7.15
2017-10-16T00:38:49.146Z,6.92
2017-10-16T00:41:16.651Z,6.99
2017-10-16T00:43:44.147Z,6.73
2017-10-16T00:46:11.644Z,6.80
2017-10-16T00:48:39.180Z,6.88
2017-10-16T00:51:06.738Z,6.97
2017-10-16T00:53:34.236Z,7.03
2017-10-16T00:56:01.731Z,7.12
2017-10-16T00:58:29.249Z,7.13
2017-10-16T01:00:56.800Z,7.11
2017-10-16T01:03:24.322Z,7.22
2017-10-16T01:05:51.837Z,6.91
2017-10-16T01:08:19.348Z,6.55
2017-10-16T01:10:46.859Z,6.47
2017-10-16T01:13:14.364Z,6.54
2017-10-16T01:15:41.888Z,6.46
2017-10-16T01:18:09.394Z,6.34
2017-10-16T01:20:36.900Z,6.33
2017-10-16T01:23:04.413Z,6.47
2017-10-16T01:25:31.910Z,6.71
2017-10-16T01:27:59.423Z,6.49
2017-10-16T01:30:26.916Z,6.39
2017-10-16T01:32:54.424Z,6.26
2017-10-16T01:35:21.935Z,6.24
2017-10-16T01:37:49.488Z,6.19
2017-10-16T01:40:16.999Z,6.11
2017-10-16T01:42:44.499Z,6.08
2017-10-16T01:45:12.004Z,6.15
2017-10-16T01:47:39.513Z,6.00
2017-10-16T01:50:07.035Z,6.03
2017-10-16T01:52:34.550Z,5.99
2017-10-16T01:55:02.065Z,6.06
2017-10-16T01:57:29.567Z,6.07
2017-10-16T01:59:57.069Z,6.03
2017-10-16T02:02:24.568Z,6.10
2017-10-16T02:04:52.063Z,6.40
2017-10-16T02:07:19.567Z,6.32
2017-10-16T02:09:47.083Z,6.17
2017-10-16T02:12:14.611Z,6.24
2017-10-16T02:14:42.137Z,6.15
2017-10-16T02:17:09.631Z,6.37
2017-10-16T02:19:37.138Z,6.30
2017-10-16T02:22:04.652Z,6.64
2017-10-16T02:24:32.160Z,6.46
2017-10-16T02:26:59.678Z,6.28
2017-10-16T02:29:27.202Z,5.97
2017-10-16T02:31:54.742Z,5.99
2017-10-16T02:34:22.259Z,6.22
2017-10-16T02:36:49.819Z,6.06
2017-10-16T02:39:17.321Z,5.98
2017-10-16T02:41:44.820Z,5.81
2017-10-16T02:44:12.323Z,5.90
2017-10-16T02:46:39.841Z,6.03
2017-10-16T02:49:07.356Z,5.80
2017-10-16T02:51:34.864Z,5.69
2017-10-16T02:54:02.375Z,5.74
2017-10-16T02:56:29.867Z,5.67
2017-10-16T02:58:57.359Z,5.65
2017-10-16T03:01:24.856Z,5.63
2017-10-16T03:03:52.374Z,5.64
2017-10-16T03:06:19.900Z,5.64
2017-10-16T03:08:47.399Z,5.64
2017-10-16T03:11:14.915Z,5.55
2017-10-16T03:13:42.418Z,5.63
2017-10-16T03:16:09.943Z,5.59
2017-10-16T03:18:37.438Z,5.44
2017-10-16T03:21:04.937Z,5.29
2017-10-16T03:23:32.464Z,5.32
2017-10-16T03:25:59.983Z,5.33
2017-10-16T03:28:27.486Z,5.27
2017-10-16T03:30:54.986Z,5.27
2017-10-16T03:33:22.488Z,5.31
2017-10-16T03:35:50.010Z,5.24
2017-10-16T03:38:17.538Z,5.13
2017-10-16T03:40:45.048Z,5.12
2017-10-16T03:43:12.540Z,5.06
2017-10-16T03:45:40.056Z,5.10
2017-10-16T03:48:07.564Z,5.17
2017-10-16T03:50:35.066Z,5.09
2017-10-16T03:53:02.568Z,4.99
2017-10-16T03:55:30.084Z,5.01
2017-10-16T03:57:57.610Z,5.22
2017-10-16T04:00:25.117Z,5.33
2017-10-16T04:02:52.620Z,5.15
2017-10-16T04:05:20.145Z,5.06
2017-10-16T04:07:47.645Z,5.05
2017-10-16T04:10:15.182Z,5.15
2017-10-16T04:12:42.688Z,5.10
2017-10-16T04:15:10.207Z,5.25
2017-10-16T04:17:37.719Z,5.34
2017-10-16T04:20:05.215Z,5.72
2017-10-16T04:22:32.724Z,5.67
2017-10-16T04:25:00.232Z,5.60
2017-10-16T04:27:27.748Z,5.57
2017-10-16T04:29:55.252Z,5.61
2017-10-16T04:32:22.749Z,5.35
2017-10-16T04:34:50.274Z,5.12
2017-10-16T04:37:17.779Z,5.07
2017-10-16T04:39:45.271Z,5.12
2017-10-16T04:42:12.774Z,5.26
2017-10-16T04:44:40.279Z,5.45
2017-10-16T04:47:07.804Z,5.95
2017-10-16T04:49:35.299Z,5.70
2017-10-16T04:52:02.801Z,5.69
2017-10-16T04:54:30.310Z,5.63
2017-10-16T04:56:57.815Z,5.65
2017-10-16T04:59:25.328Z,5.50
2017-10-16T05:01:52.834Z,5.45
2017-10-16T05:04:20.319Z,5.24
2017-10-16T05:06:47.832Z,5.35
2017-10-16T05:09:15.333Z,5.44
2017-10-16T05:11:42.843Z,5.31
2017-10-16T05:14:10.351Z,5.66
2017-10-16T05:16:37.867Z,5.65
2017-10-16T05:19:05.375Z,5.13
2017-10-16T05:28:18.751Z,5.23
2017-10-16T05:30:46.284Z,5.07
2017-10-16T05:33:13.806Z,5.06
2017-10-16T05:35:41.302Z,5.10
2017-10-16T05:38:08.795Z,5.04
2017-10-16T05:40:36.304Z,4.90
2017-10-16T05:43:03.840Z,4.85
2017-10-16T05:45:31.341Z,5.07
2017-10-16T05:47:58.861Z,5.03
2017-10-16T05:50:26.368Z,5.13
2017-10-16T05:52:53.893Z,4.90
2017-10-16T05:55:21.412Z,4.82
2017-10-16T05:57:48.916Z,4.70
2017-10-16T06:00:16.441Z,4.63
2017-10-16T06:02:43.948Z,4.78
2017-10-16T06:05:11.492Z,5.05
2017-10-16T06:07:38.994Z,5.16
2017-10-16T06:10:06.580Z,5.06
2017-10-16T06:12:34.139Z,4.96
2017-10-16T06:15:01.643Z,4.91
2017-10-16T06:17:29.151Z,4.96
2017-10-16T06:20:03.853Z,5.09
2017-10-16T06:22:31.350Z,5.25
2017-10-16T06:24:58.862Z,5.65
2017-10-16T06:27:26.379Z,5.64
2017-10-16T06:29:53.876Z,5.70
2017-10-16T06:32:21.391Z,5.95
2017-10-16T06:34:48.903Z,6.00
2017-10-16T06:37:16.402Z,5.49
2017-10-16T06:39:43.917Z,5.60
2017-10-16T06:42:11.447Z,5.82
2017-10-16T06:44:38.961Z,5.80
2017-10-16T06:47:06.475Z,5.83
2017-10-16T06:49:33.992Z,6.00
2017-10-16T06:52:01.518Z,6.27
2017-10-16T06:54:29.030Z,6.56
2017-10-16T06:56:56.537Z,6.73
2017-10-16T06:59:24.105Z,6.77
2017-10-16T07:01:51.619Z,6.81
2017-10-16T07:04:19.119Z,6.79
2017-10-16T07:06:46.648Z,6.95
2017-10-16T07:09:14.170Z,7.14
2017-10-16T07:11:41.783Z,7.23
2017-10-16T07:14:09.291Z,7.21
2017-10-16T07:16:36.812Z,7.17
2017-10-16T07:19:04.332Z,7.25
2017-10-16T07:21:31.847Z,7.35
2017-10-16T07:23:59.352Z,7.57
2017-10-16T07:26:26.877Z,7.59
2017-10-16T07:28:54.392Z,7.77
2017-10-16T07:31:21.904Z,8.01
2017-10-16T07:33:49.428Z,8.15
2017-10-16T07:36:16.929Z,8.44
2017-10-16T07:38:44.444Z,9.05
2017-10-16T07:41:11.947Z,9.33
2017-10-16T07:43:39.455Z,9.67
2017-10-16T07:46:06.980Z,10.04
2017-10-16T07:48:34.488Z,10.22
2017-10-16T07:51:02.000Z,11.06
2017-10-16T07:53:29.504Z,11.42
2017-10-16T07:55:57.008Z,11.61
2017-10-16T07:58:24.509Z,12.20
2017-10-16T08:00:52.023Z,13.95
2017-10-16T08:03:19.531Z,15.68
2017-10-16T08:05:47.056Z,16.95
2017-10-16T08:08:14.583Z,17.50
2017-10-16T08:10:42.123Z,19.08
2017-10-16T08:13:09.632Z,18.74
2017-10-16T08:15:37.138Z,18.31
2017-10-16T08:18:04.667Z,20.55
2017-10-16T08:20:32.167Z,21.24
2017-10-16T08:22:59.678Z,19.41
2017-10-16T08:25:27.182Z,19.42
2017-10-16T08:27:54.726Z,21.69
2017-10-16T08:30:22.230Z,23.23
2017-10-16T08:32:49.748Z,22.49
2017-10-16T08:35:17.278Z,23.75
2017-10-16T08:37:44.792Z,25.69
2017-10-16T08:40:12.296Z,25.49
2017-10-16T08:42:39.826Z,27.18
2017-10-16T08:45:07.338Z,25.38
2017-10-16T08:47:34.846Z,25.18
2017-10-16T08:50:02.366Z,25.23
2017-10-16T08:52:29.859Z,27.59
2017-10-16T08:54:57.375Z,27.10
2017-10-16T08:57:24.876Z,27.38
2017-10-16T08:59:52.387Z,25.62
2017-10-16T09:02:19.889Z,25.12
2017-10-16T09:04:47.408Z,25.46
2017-10-16T09:07:14.904Z,23.69
2017-10-16T09:09:42.416Z,26.00
2017-10-16T09:12:09.947Z,23.10
2017-10-16T09:14:37.452Z,25.08
2017-10-16T09:17:04.965Z,25.44
2017-10-16T09:19:32.518Z,26.87
2017-10-16T09:22:00.053Z,27.64
2017-10-16T09:24:27.564Z,27.53
2017-10-16T09:26:55.073Z,27.75
2017-10-16T09:29:22.575Z,25.55
2017-10-16T09:31:50.096Z,27.53
2017-10-16T09:34:17.622Z,29.94
2017-10-16T09:36:45.144Z,29.24
2017-10-16T09:39:12.656Z,29.98
2017-10-16T09:41:40.223Z,29.58
2017-10-16T09:44:07.759Z,30.20
2017-10-16T09:46:35.257Z,30.11
2017-10-16T09:49:02.769Z,29.27
2017-10-16T09:51:30.290Z,31.37
2017-10-16T09:53:57.808Z,30.92
2017-10-16T09:56:25.320Z,29.33
2017-10-16T09:58:52.832Z,32.04
2017-10-16T10:01:20.348Z,33.72
2017-10-16T10:03:47.850Z,30.10
2017-10-16T10:06:15.351Z,30.61
2017-10-16T10:08:42.855Z,31.89
2017-10-16T10:11:10.363Z,34.02
2017-10-16T10:13:37.888Z,34.21
2017-10-16T10:16:05.398Z,30.74
2017-10-16T10:18:32.910Z,32.43
2017-10-16T10:21:00.422Z,30.21
2017-10-16T10:23:27.941Z,29.96
2017-10-16T10:25:55.470Z,33.05
2017-10-16T10:28:22.986Z,32.01
2017-10-16T10:30:50.505Z,31.95
2017-10-16T10:33:18.007Z,30.22
2017-10-16T10:35:45.512Z,31.72
2017-10-16T10:38:13.052Z,33.28
2017-10-16T10:40:40.580Z,31.57
2017-10-16T10:43:08.135Z,31.53
2017-10-16T10:45:35.663Z,29.36
2017-10-16T10:48:03.176Z,32.20
2017-10-16T10:50:30.689Z,29.55
2017-10-16T10:52:58.198Z,32.33
2017-10-16T10:55:25.707Z,32.98
2017-10-16T10:57:53.219Z,31.99
2017-10-16T11:00:20.735Z,33.18
2017-10-16T11:02:48.272Z,32.96
2017-10-16T11:05:15.794Z,32.82
2017-10-16T11:07:43.291Z,32.13
2017-10-16T11:10:10.819Z,32.83
2017-10-16T11:12:38.318Z,33.15
2017-10-16T11:15:05.832Z,32.93
2017-10-16T11:17:33.342Z,33.79
2017-10-16T11:20:00.862Z,32.59
2017-10-16T11:22:28.405Z,32.45
2017-10-16T11:24:55.925Z,34.21
2017-10-16T11:27:23.448Z,35.11
2017-10-16T11:29:50.957Z,35.62
2017-10-16T11:32:18.474Z,35.06
2017-10-16T11:34:46.087Z,31.15
2017-10-16T11:37:13.614Z,32.03
2017-10-16T11:39:41.127Z,33.77
2017-10-16T11:42:08.638Z,32.49
2017-10-16T11:44:36.154Z,33.64
2017-10-16T11:47:03.662Z,35.37
2017-10-16T11:49:31.185Z,34.84
2017-10-16T11:51:58.712Z,34.94
2017-10-16T11:54:26.265Z,34.85
2017-10-16T11:56:53.768Z,33.98
2017-10-16T11:59:21.322Z,31.31
2017-10-16T12:01:48.834Z,31.78
2017-10-16T12:04:16.473Z,30.87
2017-10-16T12:06:44.017Z,30.22
2017-10-16T12:09:11.879Z,30.74
2017-10-16T12:11:39.423Z,32.41
2017-10-16T12:14:06.948Z,32.32
2017-10-16T12:16:34.438Z,31.74
2017-10-16T12:19:02.003Z,32.71
2017-10-16T12:21:29.528Z,32.35
2017-10-16T12:23:57.039Z,33.92
2017-10-16T12:26:24.553Z,35.08
2017-10-16T12:28:52.074Z,34.83
2017-10-16T12:31:19.581Z,35.53
2017-10-16T12:33:47.235Z,34.77
2017-10-16T12:36:14.742Z,36.24
2017-10-16T12:38:42.241Z,38.62
2017-10-16T12:41:09.745Z,38.05
2017-10-16T12:43:37.272Z,36.59
2017-10-16T12:46:04.848Z,37.57
2017-10-16T12:48:32.372Z,37.36
2017-10-16T12:50:59.897Z,35.62
2017-10-16T12:53:27.414Z,36.67
2017-10-16T12:55:54.936Z,37.28
2017-10-16T12:58:22.474Z,36.44
2017-10-16T13:00:50.102Z,36.21
2017-10-16T13:03:17.632Z,36.27
2017-10-16T13:05:45.137Z,34.28
2017-10-16T13:08:12.643Z,33.90
2017-10-16T13:10:40.142Z,34.58
2017-10-16T13:13:07.659Z,35.12
2017-10-16T13:15:35.197Z,33.81
2017-10-16T13:18:02.732Z,33.52
2017-10-16T13:20:30.254Z,31.08
2017-10-16T13:22:57.782Z,32.58
2017-10-16T13:25:25.287Z,31.40
2017-10-16T13:27:52.874Z,32.78
2017-10-16T13:30:20.402Z,32.57
2017-10-16T13:32:48.081Z,32.90
2017-10-16T13:35:15.616Z,32.21
2017-10-16T13:37:43.324Z,31.58
2017-10-16T13:40:10.839Z,31.22
2017-10-16T13:42:38.368Z,31.76
2017-10-16T13:45:05.895Z,32.50
2017-10-16T13:47:33.400Z,33.13
2017-10-16T13:50:00.900Z,33.48
2017-10-16T13:52:28.483Z,33.79
2017-10-16T13:54:55.992Z,33.92
2017-10-16T13:57:23.660Z,33.11
2017-10-16T13:59:51.191Z,33.41
2017-10-16T14:02:18.895Z,34.20
2017-10-16T14:04:46.558Z,34.40
2017-10-16T14:07:20.960Z,34.18
2017-10-16T14:09:48.469Z,33.80
2017-10-16T14:12:16.131Z,32.20
2017-10-16T14:14:43.743Z,31.52
2017-10-16T14:17:11.284Z,30.31
2017-10-16T14:19:38.969Z,30.01
2017-10-16T14:22:06.536Z,29.50
2017-10-16T14:24:34.176Z,28.64
2017-10-16T14:27:01.753Z,27.74
2017-10-16T14:29:30.339Z,27.13
2017-10-16T14:31:57.888Z,26.29
2017-10-16T14:34:25.421Z,26.06
2017-10-16T14:36:52.932Z,25.94
2017-10-16T14:39:20.583Z,25.40
2017-10-16T14:41:48.093Z,25.27
2017-10-16T14:44:15.632Z,25.13
2017-10-16T14:46:43.144Z,24.93
2017-10-16T14:49:10.778Z,24.93
2017-10-16T14:51:38.291Z,24.87
2017-10-16T14:54:05.924Z,24.13
2017-10-16T14:56:33.585Z,23.71
2017-10-16T14:59:01.097Z,22.41
2017-10-16T15:01:28.656Z,21.85
2017-10-16T15:03:56.194Z,21.57
2017-10-16T15:06:23.719Z,21.43
2017-10-16T15:08:51.358Z,21.08
2017-10-16T15:11:18.878Z,20.90
2017-10-16T15:13:46.406Z,21.01
2017-10-16T15:16:13.938Z,20.72
2017-10-16T15:18:41.455Z,20.43
2017-10-16T15:21:09.075Z,20.44
2017-10-16T15:23:36.602Z,20.16
2017-10-16T15:26:04.128Z,20.14
2017-10-16T15:28:31.642Z,19.91
2017-10-16T15:30:59.166Z,19.93
2017-10-16T15:33:26.690Z,19.88
2017-10-16T15:35:54.200Z,19.89
2017-10-16T15:38:21.711Z,20.01
2017-10-16T15:40:49.222Z,19.74
2017-10-16T15:43:16.752Z,19.50
2017-10-16T15:45:45.206Z,19.50
2017-10-16T15:48:12.736Z,19.41
2017-10-16T15:50:40.282Z,19.28
2017-10-16T15:53:07.799Z,19.35
2017-10-16T15:55:35.319Z,19.18
2017-10-16T15:58:02.833Z,18.92
2017-10-16T16:00:33.135Z,18.48
2017-10-16T16:03:00.759Z,18.10
2017-10-16T16:05:28.366Z,18.07
2017-10-16T16:07:55.880Z,17.96
2017-10-16T16:10:23.404Z,18.08
2017-10-16T16:12:50.926Z,18.02
2017-10-16T16:15:18.449Z,17.71
2017-10-16T16:17:45.954Z,17.29
2017-10-16T16:20:13.644Z,16.91
2017-10-16T16:22:41.335Z,16.70
2017-10-16T16:25:08.871Z,16.67
2017-10-16T16:27:37.436Z,16.69
2017-10-16T16:30:05.299Z,16.48
2017-10-16T16:32:32.904Z,16.17
2017-10-16T16:35:00.714Z,15.82
2017-10-16T16:37:28.245Z,15.84
2017-10-16T16:39:55.783Z,15.55
2017-10-16T16:42:23.325Z,15.61
2017-10-16T16:44:50.845Z,15.44
2017-10-16T16:47:18.379Z,15.44
2017-10-16T16:49:45.903Z,15.18
2017-10-16T16:52:13.424Z,15.09
2017-10-16T16:54:40.939Z,15.17
2017-10-16T16:57:08.442Z,15.15
2017-10-16T16:59:35.960Z,14.90
2017-10-16T17:02:03.490Z,15.06
2017-10-16T17:04:31.032Z,14.98
2017-10-16T17:06:58.540Z,14.60
2017-10-16T17:09:26.168Z,14.65
2017-10-16T17:11:53.727Z,14.61
2017-10-16T17:14:21.239Z,14.53
2017-10-16T17:16:48.843Z,14.58
2017-10-16T17:19:16.365Z,14.24
2017-10-16T17:21:43.882Z,14.22
2017-10-16T17:24:11.426Z,14.13
2017-10-16T17:26:38.967Z,14.04
2017-10-16T17:29:06.484Z,14.01
2017-10-16T17:31:34.015Z,14.10
2017-10-16T17:34:01.526Z,13.98
2017-10-16T17:36:29.051Z,14.14
2017-10-16T17:38:56.587Z,13.96
2017-10-16T17:41:24.145Z,13.70
2017-10-16T17:43:51.655Z,13.79
2017-10-16T17:46:19.244Z,13.92
2017-10-16T17:48:46.787Z,13.16
2017-10-16T17:51:14.357Z,13.37
2017-10-16T17:53:41.917Z,13.39
2017-10-16T17:56:09.449Z,13.34
2017-10-16T17:58:37.011Z,13.32
2017-10-16T18:01:04.544Z,13.42
2017-10-16T18:03:32.065Z,13.55
2017-10-16T18:05:59.570Z,13.47
2017-10-16T18:08:27.131Z,12.86
2017-10-16T18:10:54.704Z,13.06
2017-10-16T18:13:22.240Z,13.28
2017-10-16T18:15:49.771Z,13.15
2017-10-16T18:18:17.298Z,12.89
2017-10-16T18:20:44.831Z,12.70
2017-10-16T18:23:12.402Z,12.82
2017-10-16T18:25:39.984Z,12.67
2017-10-16T18:28:07.555Z,12.73
2017-10-16T18:30:35.141Z,12.79
2017-10-16T18:33:02.691Z,12.78
2017-10-16T18:35:30.241Z,12.67
2017-10-16T18:37:57.789Z,12.27
2017-10-16T18:40:25.367Z,12.51
2017-10-16T18:42:52.953Z,12.45
2017-10-16T18:45:20.553Z,12.33
2017-10-16T18:47:48.087Z,11.88
2017-10-16T18:50:15.774Z,11.97
2017-10-16T18:52:43.330Z,12.08
2017-10-16T18:55:10.897Z,12.25
2017-10-16T18:57:38.472Z,12.23
2017-10-16T19:00:06.007Z,11.98
2017-10-16T19:02:33.576Z,11.96
2017-10-16T19:05:01.123Z,11.96
2017-10-16T19:07:28.696Z,11.86
2017-10-16T19:09:56.258Z,11.77
2017-10-16T19:12:23.839Z,11.90
2017-10-16T19:14:51.407Z,11.89
2017-10-16T19:17:18.974Z,11.87
2017-10-16T19:19:46.543Z,11.80
2017-10-16T19:22:14.103Z,11.47
2017-10-16T19:24:41.692Z,11.05
2017-10-16T19:27:09.306Z,11.16
2017-10-16T19:29:36.850Z,11.33
2017-10-16T19:32:04.372Z,11.53
2017-10-16T19:34:31.914Z,11.41
2017-10-16T19:36:59.455Z,11.49
2017-10-16T19:39:26.977Z,11.43
2017-10-16T19:41:54.506Z,11.13
2017-10-16T19:44:22.051Z,11.31
2017-10-16T19:46:49.772Z,11.19
2017-10-16T19:49:17.324Z,11.24
2017-10-16T19:51:44.859Z,11.21
2017-10-16T19:54:12.371Z,11.10
2017-10-16T19:56:39.923Z,10.79
2017-10-16T19:59:07.486Z,10.74
2017-10-16T20:01:35.013Z,10.83
2017-10-16T20:04:02.548Z,10.90
2017-10-16T20:06:30.068Z,10.99
2017-10-16T20:08:57.619Z,10.85
2017-10-16T20:11:25.135Z,10.70
2017-10-16T20:13:52.835Z,10.45
2017-10-16T20:16:20.345Z,10.62
2017-10-16T20:18:47.871Z,10.73
2017-10-16T20:21:15.396Z,10.86
2017-10-16T20:23:42.928Z,10.71
2017-10-16T20:26:10.440Z,10.57
2017-10-16T20:28:37.978Z,10.33
2017-10-16T20:31:05.527Z,10.48
2017-10-16T20:33:33.082Z,10.38
2017-10-16T20:36:00.769Z,10.39
2017-10-16T20:38:28.298Z,10.39
2017-10-16T20:40:55.837Z,10.26
2017-10-16T20:43:23.351Z,9.98
2017-10-16T20:45:50.872Z,10.39
2017-10-16T20:48:18.390Z,10.31
2017-10-16T20:50:45.919Z,10.02
2017-10-16T20:53:13.435Z,9.97
2017-10-16T20:55:40.963Z,9.58
2017-10-16T20:58:08.476Z,9.86
2017-10-16T21:00:36.005Z,9.96
2017-10-16T21:03:03.530Z,10.11
2017-10-16T21:05:31.060Z,10.13
2017-10-16T21:07:58.580Z,9.92
2017-10-16T21:10:26.219Z,9.68
2017-10-16T21:12:53.883Z,9.68
2017-10-16T21:15:21.537Z,9.84
2017-10-16T21:17:49.185Z,9.84
2017-10-16T21:20:16.695Z,9.80
2017-10-16T21:22:44.223Z,9.75
2017-10-16T21:25:11.745Z,9.46
2017-10-16T21:27:39.291Z,9.48
2017-10-16T21:30:06.836Z,9.66
2017-10-16T21:32:34.338Z,9.13
2017-10-16T21:35:01.960Z,9.26
2017-10-16T21:37:29.552Z,9.49
2017-10-16T21:39:57.066Z,9.41
2017-10-16T21:42:24.698Z,9.42
2017-10-16T21:44:52.209Z,9.46
2017-10-16T21:47:19.711Z,9.73
2017-10-16T21:49:47.226Z,9.26
2017-10-16T21:52:14.741Z,9.12
2017-10-16T21:54:42.251Z,8.56
2017-10-16T21:57:09.768Z,8.52
2017-10-16T21:59:37.305Z,8.56
2017-10-16T22:02:04.811Z,8.85
2017-10-16T22:04:32.352Z,8.97
2017-10-16T22:06:59.857Z,9.12
2017-10-16T22:09:27.366Z,8.79
2017-10-16T22:11:54.878Z,8.97
2017-10-16T22:14:22.430Z,9.00
2017-10-16T22:16:49.965Z,8.63
2017-10-16T22:19:17.476Z,8.50
2017-10-16T22:21:44.996Z,8.90
2017-10-16T22:24:12.547Z,8.71
2017-10-16T22:26:40.079Z,8.49
2017-10-16T22:29:07.590Z,8.38
2017-10-16T22:31:35.094Z,8.42
2017-10-16T22:34:02.615Z,8.45
2017-10-16T22:36:30.136Z,8.24
2017-10-16T22:38:57.690Z,8.09
2017-10-16T22:41:25.204Z,8.29
2017-10-16T22:43:52.723Z,8.40
2017-10-16T22:46:20.230Z,8.57
2017-10-16T22:48:48.607Z,8.19
2017-10-16T22:51:16.199Z,8.05
2017-10-16T22:53:43.719Z,8.23
2017-10-16T22:56:11.224Z,8.22
2017-10-16T22:58:38.878Z,8.67
2017-10-16T23:01:06.394Z,8.29
2017-10-16T23:03:33.940Z,7.97
2017-10-16T23:06:01.443Z,7.82
2017-10-16T23:08:28.968Z,7.84
2017-10-16T23:10:56.476Z,7.85
2017-10-16T23:13:23.994Z,7.75
2017-10-16T23:15:51.491Z,7.45
2017-10-16T23:18:19.023Z,7.81
2017-10-16T23:20:46.543Z,7.89
2017-10-16T23:23:14.059Z,8.06
2017-10-16T23:25:41.575Z,8.20
2017-10-16T23:28:09.190Z,8.20
2017-10-16T23:30:36.719Z,8.35
2017-10-16T23:33:04.228Z,8.25
2017-10-16T23:35:31.743Z,8.39
2017-10-16T23:37:59.239Z,8.32
2017-10-16T23:40:26.746Z,8.29
2017-10-16T23:42:54.254Z,8.05
2017-10-16T23:45:21.759Z,7.83
2017-10-16T23:47:49.255Z,7.90
2017-10-16T23:50:16.764Z,7.93
2017-10-16T23:52:44.287Z,7.58
2017-10-16T23:55:11.783Z,7.88
2017-10-16T23:57:39.288Z,7.67
